sensor_id;sensor_type;location;lat;lon;timestamp;pressure;altitude;pressure_sealevel;temperature;humidity
36788;BME280;22738;45.560;9.434;2023-01-28T00:05:38;99857.78;;;1.23;100.00
36788;BME280;22738;45.560;9.434;2023-01-28T00:12:19;99853.09;;;1.40;100.00
36788;BME280;22738;45.560;9.434;2023-01-28T00:19:00;99846.63;;;0.95;100.00
36788;BME280;22738;45.560;9.434;2023-01-28T00:25:41;99852.06;;;1.14;100.00
36788;BME280;22738;45.560;9.434;2023-01-28T00:32:22;99847.50;;;1.26;100.00
36788;BME280;22738;45.560;9.434;2023-01-28T00:39:03;99858.22;;;1.40;100.00
36788;BME280;22738;45.560;9.434;2023-01-28T00:45:45;99862.66;;;1.32;100.00
36788;BME280;22738;45.560;9.434;2023-01-28T00:52:27;99855.44;;;1.48;100.00
36788;BME280;22738;45.560;9.434;2023-01-28T00:59:08;99851.72;;;1.60;100.00
36788;BME280;22738;45.560;9.434;2023-01-28T01:05:50;99857.34;;;1.72;100.00
36788;BME280;22738;45.560;9.434;2023-01-28T01:12:33;99864.88;;;1.77;100.00
36788;BME280;22738;45.560;9.434;2023-01-28T01:19:15;99875.84;;;1.80;100.00
36788;BME280;22738;45.560;9.434;2023-01-28T01:25:57;99872.66;;;1.72;100.00
36788;BME280;22738;45.560;9.434;2023-01-28T01:32:38;99880.28;;;1.74;100.00
36788;BME280;22738;45.560;9.434;2023-01-28T01:39:19;99881.78;;;1.81;100.00
36788;BME280;22738;45.560;9.434;2023-01-28T01:46:02;99883.28;;;1.88;100.00
36788;BME280;22738;45.560;9.434;2023-01-28T01:52:44;99888.66;;;1.79;100.00
36788;BME280;22738;45.560;9.434;2023-01-28T01:59:29;99888.97;;;1.67;100.00
36788;BME280;22738;45.560;9.434;2023-01-28T02:06:11;99879.97;;;1.54;100.00
36788;BME280;22738;45.560;9.434;2023-01-28T02:12:56;99880.84;;;1.53;100.00
36788;BME280;22738;45.560;9.434;2023-01-28T02:19:48;99875.72;;;1.53;100.00
36788;BME280;22738;45.560;9.434;2023-01-28T02:40:48;99875.19;;;1.41;100.00
36788;BME280;22738;45.560;9.434;2023-01-28T02:47:43;99884.53;;;1.42;100.00
36788;BME280;22738;45.560;9.434;2023-01-28T02:54:42;99882.84;;;1.41;100.00
36788;BME280;22738;45.560;9.434;2023-01-28T03:01:32;99885.25;;;1.48;100.00
36788;BME280;22738;45.560;9.434;2023-01-28T03:08:17;99886.88;;;1.50;100.00
36788;BME280;22738;45.560;9.434;2023-01-28T03:15:21;99895.41;;;1.49;100.00
36788;BME280;22738;45.560;9.434;2023-01-28T03:22:23;99896.09;;;1.56;100.00
36788;BME280;22738;45.560;9.434;2023-01-28T03:29:31;99897.00;;;1.53;100.00
36788;BME280;22738;45.560;9.434;2023-01-28T03:36:34;99907.34;;;1.49;100.00
36788;BME280;22738;45.560;9.434;2023-01-28T03:43:55;99913.19;;;1.54;100.00
36788;BME280;22738;45.560;9.434;2023-01-28T03:50:37;99916.59;;;1.53;100.00
36788;BME280;22738;45.560;9.434;2023-01-28T03:57:22;99921.31;;;1.35;100.00
36788;BME280;22738;45.560;9.434;2023-01-28T04:04:03;99920.00;;;1.19;100.00
36788;BME280;22738;45.560;9.434;2023-01-28T04:10:45;99915.84;;;1.15;100.00
36788;BME280;22738;45.560;9.434;2023-01-28T04:17:46;99917.69;;;1.10;100.00
36788;BME280;22738;45.560;9.434;2023-01-28T04:24:34;99924.31;;;1.17;100.00
36788;BME280;22738;45.560;9.434;2023-01-28T04:31:16;99930.16;;;1.22;100.00
36788;BME280;22738;45.560;9.434;2023-01-28T04:37:57;99939.16;;;1.02;100.00
36788;BME280;22738;45.560;9.434;2023-01-28T04:44:44;99945.06;;;1.02;100.00
36788;BME280;22738;45.560;9.434;2023-01-28T04:51:46;99961.91;;;1.09;100.00
36788;BME280;22738;45.560;9.434;2023-01-28T04:58:45;99964.03;;;1.29;100.00
36788;BME280;22738;45.560;9.434;2023-01-28T05:05:30;99977.44;;;1.37;100.00
36788;BME280;22738;45.560;9.434;2023-01-28T05:12:14;99983.38;;;1.37;100.00
36788;BME280;22738;45.560;9.434;2023-01-28T05:18:56;99984.97;;;1.43;100.00
36788;BME280;22738;45.560;9.434;2023-01-28T05:25:38;99978.56;;;1.59;100.00
36788;BME280;22738;45.560;9.434;2023-01-28T05:32:19;99996.31;;;1.65;100.00
36788;BME280;22738;45.560;9.434;2023-01-28T05:39:00;100003.94;;;1.67;100.00
36788;BME280;22738;45.560;9.434;2023-01-28T05:45:42;100008.41;;;1.59;100.00
36788;BME280;22738;45.560;9.434;2023-01-28T05:52:31;100010.38;;;1.48;100.00
36788;BME280;22738;45.560;9.434;2023-01-28T05:59:13;100017.44;;;1.36;100.00
36788;BME280;22738;45.560;9.434;2023-01-28T06:05:58;100012.41;;;1.33;100.00
36788;BME280;22738;45.560;9.434;2023-01-28T06:12:39;100012.66;;;1.23;100.00
36788;BME280;22738;45.560;9.434;2023-01-28T06:19:46;100012.16;;;1.07;100.00
36788;BME280;22738;45.560;9.434;2023-01-28T06:26:27;100023.28;;;1.05;100.00
36788;BME280;22738;45.560;9.434;2023-01-28T06:33:09;100031.91;;;0.99;100.00
36788;BME280;22738;45.560;9.434;2023-01-28T06:39:54;100046.63;;;0.87;100.00
36788;BME280;22738;45.560;9.434;2023-01-28T06:46:35;100057.88;;;0.78;100.00
36788;BME280;22738;45.560;9.434;2023-01-28T06:53:16;100053.00;;;0.66;100.00
36788;BME280;22738;45.560;9.434;2023-01-28T06:59:58;100063.97;;;0.71;100.00
36788;BME280;22738;45.560;9.434;2023-01-28T07:06:39;100073.22;;;0.77;100.00
36788;BME280;22738;45.560;9.434;2023-01-28T07:13:20;100076.44;;;0.86;100.00
36788;BME280;22738;45.560;9.434;2023-01-28T07:20:01;100078.69;;;0.98;100.00
36788;BME280;22738;45.560;9.434;2023-01-28T07:26:42;100079.09;;;1.18;100.00
36788;BME280;22738;45.560;9.434;2023-01-28T07:33:23;100075.22;;;1.40;100.00
36788;BME280;22738;45.560;9.434;2023-01-28T07:40:05;100086.78;;;1.57;100.00
36788;BME280;22738;45.560;9.434;2023-01-28T07:46:46;100105.94;;;1.74;100.00
36788;BME280;22738;45.560;9.434;2023-01-28T07:53:27;100121.47;;;1.64;100.00
36788;BME280;22738;45.560;9.434;2023-01-28T08:00:09;100141.44;;;1.85;100.00
36788;BME280;22738;45.560;9.434;2023-01-28T08:06:54;100145.00;;;2.13;100.00
36788;BME280;22738;45.560;9.434;2023-01-28T08:13:37;100150.25;;;5.79;100.00
36788;BME280;22738;45.560;9.434;2023-01-28T08:20:18;100155.94;;;9.82;100.00
36788;BME280;22738;45.560;9.434;2023-01-28T08:26:59;100163.53;;;11.45;94.25
36788;BME280;22738;45.560;9.434;2023-01-28T08:33:40;100170.84;;;12.20;88.85
36788;BME280;22738;45.560;9.434;2023-01-28T08:40:21;100161.53;;;12.95;90.16
36788;BME280;22738;45.560;9.434;2023-01-28T08:47:03;100175.31;;;13.58;72.27
36788;BME280;22738;45.560;9.434;2023-01-28T08:53:44;100176.59;;;14.23;68.84
36788;BME280;22738;45.560;9.434;2023-01-28T09:00:25;100178.31;;;14.12;65.58
36788;BME280;22738;45.560;9.434;2023-01-28T09:07:08;100185.56;;;14.67;59.10
36788;BME280;22738;45.560;9.434;2023-01-28T09:13:49;100199.00;;;15.84;56.89
36788;BME280;22738;45.560;9.434;2023-01-28T09:20:30;100203.13;;;13.45;65.47
36788;BME280;22738;45.560;9.434;2023-01-28T09:27:12;100209.44;;;11.44;83.72
36788;BME280;22738;45.560;9.434;2023-01-28T09:33:53;100212.69;;;12.03;80.18
36788;BME280;22738;45.560;9.434;2023-01-28T09:40:41;100219.03;;;12.38;73.10
36788;BME280;22738;45.560;9.434;2023-01-28T09:47:39;100223.13;;;12.15;74.87
36788;BME280;22738;45.560;9.434;2023-01-28T09:54:44;100220.59;;;12.80;73.42
36788;BME280;22738;45.560;9.434;2023-01-28T10:29:31;100198.84;;;9.07;100.00
36788;BME280;22738;45.560;9.434;2023-01-28T10:36:14;100189.06;;;8.79;100.00
36788;BME280;22738;45.560;9.434;2023-01-28T10:42:58;100195.06;;;8.80;100.00
36788;BME280;22738;45.560;9.434;2023-01-28T10:49:43;100186.38;;;8.65;100.00
36788;BME280;22738;45.560;9.434;2023-01-28T10:56:32;100180.81;;;8.55;100.00
36788;BME280;22738;45.560;9.434;2023-01-28T11:03:17;100167.66;;;8.60;100.00
36788;BME280;22738;45.560;9.434;2023-01-28T11:09:58;100167.88;;;8.73;100.00
36788;BME280;22738;45.560;9.434;2023-01-28T11:16:40;100155.88;;;8.72;100.00
36788;BME280;22738;45.560;9.434;2023-01-28T11:23:28;100157.56;;;8.38;100.00
36788;BME280;22738;45.560;9.434;2023-01-28T11:30:21;100137.44;;;8.28;100.00
36788;BME280;22738;45.560;9.434;2023-01-28T11:37:11;100129.72;;;8.09;100.00
36788;BME280;22738;45.560;9.434;2023-01-28T11:43:54;100126.75;;;8.00;100.00
36788;BME280;22738;45.560;9.434;2023-01-28T11:51:47;100118.78;;;8.04;100.00
36788;BME280;22738;45.560;9.434;2023-01-28T12:12:05;100091.28;;;8.20;100.00
36788;BME280;22738;45.560;9.434;2023-01-28T12:26:30;100067.53;;;8.48;100.00
36788;BME280;22738;45.560;9.434;2023-01-28T12:47:35;100054.88;;;8.76;97.53
36788;BME280;22738;45.560;9.434;2023-01-28T13:01:15;100052.34;;;8.75;93.94
36788;BME280;22738;45.560;9.434;2023-01-28T13:08:05;100041.94;;;8.76;98.19
36788;BME280;22738;45.560;9.434;2023-01-28T13:14:50;100044.06;;;8.68;89.27
36788;BME280;22738;45.560;9.434;2023-01-28T13:21:34;100037.84;;;8.72;82.85
36788;BME280;22738;45.560;9.434;2023-01-28T13:28:32;100044.16;;;8.67;83.27
36788;BME280;22738;45.560;9.434;2023-01-28T13:35:29;100047.16;;;8.75;83.28
36788;BME280;22738;45.560;9.434;2023-01-28T13:49:03;100068.28;;;8.83;87.04
36788;BME280;22738;45.560;9.434;2023-01-28T13:55:45;100070.88;;;8.83;87.04
36788;BME280;22738;45.560;9.434;2023-01-28T14:02:57;100079.09;;;8.74;87.99
36788;BME280;22738;45.560;9.434;2023-01-28T14:16:57;100085.44;;;8.84;100.00
36788;BME280;22738;45.560;9.434;2023-01-28T14:23:51;100086.03;;;8.89;100.00
36788;BME280;22738;45.560;9.434;2023-01-28T14:30:46;100091.88;;;8.77;100.00
36788;BME280;22738;45.560;9.434;2023-01-28T14:37:31;100088.84;;;8.69;100.00
36788;BME280;22738;45.560;9.434;2023-01-28T14:44:23;100099.50;;;8.63;100.00
36788;BME280;22738;45.560;9.434;2023-01-28T14:51:30;100099.22;;;8.51;100.00
36788;BME280;22738;45.560;9.434;2023-01-28T14:58:20;100098.47;;;8.49;100.00
36788;BME280;22738;45.560;9.434;2023-01-28T15:05:15;100098.31;;;8.35;100.00
36788;BME280;22738;45.560;9.434;2023-01-28T15:11:57;100092.97;;;8.21;100.00
36788;BME280;22738;45.560;9.434;2023-01-28T15:18:42;100104.84;;;8.08;100.00
36788;BME280;22738;45.560;9.434;2023-01-28T15:25:27;100100.56;;;8.07;97.21
36788;BME280;22738;45.560;9.434;2023-01-28T15:32:24;100099.66;;;7.91;100.00
36788;BME280;22738;45.560;9.434;2023-01-28T15:39:13;100104.13;;;7.87;100.00
36788;BME280;22738;45.560;9.434;2023-01-28T15:45:57;100113.97;;;7.79;100.00
36788;BME280;22738;45.560;9.434;2023-01-28T15:52:40;100127.69;;;7.63;100.00
36788;BME280;22738;45.560;9.434;2023-01-28T15:59:26;100134.72;;;7.41;100.00
36788;BME280;22738;45.560;9.434;2023-01-28T16:06:12;100138.31;;;7.19;100.00
36788;BME280;22738;45.560;9.434;2023-01-28T16:13:21;100142.72;;;6.97;100.00
36788;BME280;22738;45.560;9.434;2023-01-28T16:20:06;100152.94;;;6.80;100.00
36788;BME280;22738;45.560;9.434;2023-01-28T16:26:58;100153.44;;;6.68;100.00
36788;BME280;22738;45.560;9.434;2023-01-28T16:33:39;100168.03;;;6.49;100.00
36788;BME280;22738;45.560;9.434;2023-01-28T16:40:22;100168.78;;;6.31;100.00
36788;BME280;22738;45.560;9.434;2023-01-28T16:47:04;100185.19;;;6.07;100.00
36788;BME280;22738;45.560;9.434;2023-01-28T16:53:46;100192.13;;;5.83;100.00
36788;BME280;22738;45.560;9.434;2023-01-28T17:00:28;100201.94;;;5.50;100.00
36788;BME280;22738;45.560;9.434;2023-01-28T17:07:10;100202.06;;;5.24;100.00
36788;BME280;22738;45.560;9.434;2023-01-28T17:13:52;100213.38;;;4.95;100.00
36788;BME280;22738;45.560;9.434;2023-01-28T17:20:33;100216.06;;;4.68;100.00
36788;BME280;22738;45.560;9.434;2023-01-28T17:27:17;100220.75;;;4.55;100.00
36788;BME280;22738;45.560;9.434;2023-01-28T17:33:58;100234.31;;;4.32;100.00
36788;BME280;22738;45.560;9.434;2023-01-28T17:40:39;100243.22;;;4.22;100.00
36788;BME280;22738;45.560;9.434;2023-01-28T17:47:20;100254.00;;;4.04;100.00
36788;BME280;22738;45.560;9.434;2023-01-28T17:54:02;100263.88;;;3.90;100.00
36788;BME280;22738;45.560;9.434;2023-01-28T18:00:43;100282.16;;;3.78;100.00
36788;BME280;22738;45.560;9.434;2023-01-28T18:07:26;100284.72;;;3.49;100.00
36788;BME280;22738;45.560;9.434;2023-01-28T18:14:07;100292.25;;;3.23;100.00
36788;BME280;22738;45.560;9.434;2023-01-28T18:21:18;100297.06;;;3.35;100.00
36788;BME280;22738;45.560;9.434;2023-01-28T18:28:00;100319.16;;;3.39;100.00
36788;BME280;22738;45.560;9.434;2023-01-28T18:34:41;100325.91;;;3.43;100.00
36788;BME280;22738;45.560;9.434;2023-01-28T18:41:22;100329.63;;;3.30;100.00
36788;BME280;22738;45.560;9.434;2023-01-28T18:48:03;100344.31;;;3.23;100.00
36788;BME280;22738;45.560;9.434;2023-01-28T18:54:45;100346.78;;;3.28;100.00
36788;BME280;22738;45.560;9.434;2023-01-28T19:01:28;100356.34;;;3.21;100.00
36788;BME280;22738;45.560;9.434;2023-01-28T19:08:09;100360.50;;;3.25;100.00
36788;BME280;22738;45.560;9.434;2023-01-28T19:14:50;100358.34;;;3.10;100.00
36788;BME280;22738;45.560;9.434;2023-01-28T19:21:32;100379.56;;;3.14;100.00
36788;BME280;22738;45.560;9.434;2023-01-28T19:28:13;100386.44;;;3.12;100.00
36788;BME280;22738;45.560;9.434;2023-01-28T19:34:54;100398.63;;;3.04;100.00
36788;BME280;22738;45.560;9.434;2023-01-28T19:41:36;100403.84;;;2.99;100.00
36788;BME280;22738;45.560;9.434;2023-01-28T19:48:17;100413.28;;;2.97;100.00
36788;BME280;22738;45.560;9.434;2023-01-28T19:54:58;100420.91;;;2.99;100.00
36788;BME280;22738;45.560;9.434;2023-01-28T20:01:39;100417.19;;;3.12;100.00
36788;BME280;22738;45.560;9.434;2023-01-28T20:08:20;100419.84;;;3.07;100.00
36788;BME280;22738;45.560;9.434;2023-01-28T20:15:02;100408.84;;;3.04;100.00
36788;BME280;22738;45.560;9.434;2023-01-28T20:21:44;100423.41;;;3.02;100.00
36788;BME280;22738;45.560;9.434;2023-01-28T20:28:26;100424.34;;;2.98;100.00
36788;BME280;22738;45.560;9.434;2023-01-28T20:35:08;100428.75;;;2.93;100.00
36788;BME280;22738;45.560;9.434;2023-01-28T20:41:49;100440.06;;;2.82;100.00
36788;BME280;22738;45.560;9.434;2023-01-28T20:48:31;100444.44;;;2.79;100.00
36788;BME280;22738;45.560;9.434;2023-01-28T20:55:12;100447.88;;;2.76;100.00
36788;BME280;22738;45.560;9.434;2023-01-28T21:01:55;100459.13;;;2.69;100.00
36788;BME280;22738;45.560;9.434;2023-01-28T21:08:37;100467.56;;;2.73;100.00
36788;BME280;22738;45.560;9.434;2023-01-28T21:15:18;100478.00;;;2.65;100.00
36788;BME280;22738;45.560;9.434;2023-01-28T21:21:59;100488.25;;;2.64;100.00
36788;BME280;22738;45.560;9.434;2023-01-28T21:28:41;100489.91;;;2.66;100.00
36788;BME280;22738;45.560;9.434;2023-01-28T21:35:22;100509.72;;;2.57;100.00
36788;BME280;22738;45.560;9.434;2023-01-28T21:42:03;100520.03;;;2.52;100.00
36788;BME280;22738;45.560;9.434;2023-01-28T21:48:44;100521.59;;;2.61;100.00
36788;BME280;22738;45.560;9.434;2023-01-28T21:55:26;100528.38;;;2.63;100.00
36788;BME280;22738;45.560;9.434;2023-01-28T22:02:12;100525.66;;;2.69;100.00
36788;BME280;22738;45.560;9.434;2023-01-28T22:08:53;100529.78;;;2.75;100.00
36788;BME280;22738;45.560;9.434;2023-01-28T22:15:36;100535.66;;;2.81;100.00
36788;BME280;22738;45.560;9.434;2023-01-28T22:22:17;100538.94;;;2.86;100.00
36788;BME280;22738;45.560;9.434;2023-01-28T22:28:58;100542.44;;;2.82;100.00
36788;BME280;22738;45.560;9.434;2023-01-28T22:35:39;100545.94;;;2.78;100.00
36788;BME280;22738;45.560;9.434;2023-01-28T22:42:21;100548.97;;;2.96;100.00
36788;BME280;22738;45.560;9.434;2023-01-28T22:49:02;100549.13;;;2.89;100.00
36788;BME280;22738;45.560;9.434;2023-01-28T22:55:44;100552.53;;;2.90;100.00
36788;BME280;22738;45.560;9.434;2023-01-28T23:02:25;100560.88;;;2.98;100.00
36788;BME280;22738;45.560;9.434;2023-01-28T23:09:06;100560.00;;;2.99;100.00
36788;BME280;22738;45.560;9.434;2023-01-28T23:15:48;100559.41;;;2.88;100.00
36788;BME280;22738;45.560;9.434;2023-01-28T23:22:48;100576.47;;;2.87;100.00
36788;BME280;22738;45.560;9.434;2023-01-28T23:29:48;100574.78;;;2.86;100.00
36788;BME280;22738;45.560;9.434;2023-01-28T23:36:31;100588.66;;;2.76;100.00
36788;BME280;22738;45.560;9.434;2023-01-28T23:43:12;100589.69;;;2.66;100.00
36788;BME280;22738;45.560;9.434;2023-01-28T23:49:54;100587.25;;;2.60;100.00
36788;BME280;22738;45.560;9.434;2023-01-28T23:56:35;100595.88;;;2.56;100.00
